VLG150 LEMH-LEVC

Flight info

Callsign VLG150
Flight time 0h 53m
Altitude 21000
Route EPAMA N733 ARGOR
Aircraft A320/M-SDE3FGHIRWY/LB1

Departure

Time 2026-04-15 13:01
Airport Menorca Airport (LEMH)

Arrival

Time 2026-04-15 13:54
Airport Valencia Airport (LEVC)
Time Latitude Longitude Altitude Speed Heading
2026-04-15 12:30 39.86466 4.22402 287 ft 0 kts 100°
2026-04-15 12:34 39.86466 4.22401 287 ft 0 kts 100°
2026-04-15 12:53 39.86466 4.22400 286 ft 2 kts 100°
2026-04-15 12:53 39.86471 4.22368 289 ft 4 kts 107°
2026-04-15 12:53 39.86482 4.22337 288 ft 4 kts 133°
2026-04-15 12:53 39.86499 4.22324 290 ft 1 kts 189°
2026-04-15 12:55 39.86493 4.22323 291 ft 3 kts 189°
2026-04-15 12:55 39.86457 4.22315 290 ft 6 kts 188°
2026-04-15 12:56 39.86404 4.22305 293 ft 9 kts 188°
2026-04-15 12:56 39.86326 4.22289 288 ft 13 kts 189°
2026-04-15 12:56 39.86242 4.22271 288 ft 12 kts 189°
2026-04-15 12:56 39.86188 4.22220 291 ft 9 kts 256°
2026-04-15 12:57 39.86189 4.22145 292 ft 8 kts 277°
2026-04-15 12:57 39.86175 4.22096 297 ft 6 kts 223°
2026-04-15 12:57 39.86135 4.22078 297 ft 7 kts 183°
2026-04-15 12:57 39.86076 4.22067 295 ft 12 kts 188°
2026-04-15 12:58 39.85963 4.22043 296 ft 21 kts 190°
2026-04-15 12:58 39.85788 4.22007 293 ft 30 kts 188°
2026-04-15 12:58 39.85570 4.21962 287 ft 34 kts 188°
2026-04-15 12:58 39.85327 4.21911 282 ft 37 kts 189°
2026-04-15 12:59 39.85135 4.21774 284 ft 13 kts 277°
2026-04-15 12:59 39.85159 4.21668 286 ft 11 kts 321°
2026-04-15 12:59 39.85236 4.21654 290 ft 0 kts
2026-04-15 13:00 39.85257 4.21658 285 ft 15 kts
2026-04-15 13:00 39.85632 4.21733 294 ft 90 kts
2026-04-15 13:00 39.86449 4.21899 306 ft 146 kts
2026-04-15 13:00 39.87491 4.22166 811 ft 153 kts
2026-04-15 13:01 39.88548 4.22434 1567 ft 157 kts
2026-04-15 13:01 39.89671 4.22679 2237 ft 170 kts
2026-04-15 13:01 39.90892 4.22912 2812 ft 186 kts
2026-04-15 13:01 39.92255 4.23163 3263 ft 211 kts
2026-04-15 13:02 39.93797 4.23437 3789 ft 236 kts
2026-04-15 13:02 39.95510 4.23589 4438 ft 253 kts 353°
2026-04-15 13:02 39.97190 4.22946 5446 ft 254 kts 330°
2026-04-15 13:02 39.98514 4.21403 6475 ft 260 kts 310°
2026-04-15 13:03 39.99547 4.19431 7372 ft 268 kts 303°
2026-04-15 13:03 40.00339 4.17203 8222 ft 277 kts 288°
2026-04-15 13:03 40.00435 4.14666 9119 ft 288 kts 262°
2026-04-15 13:03 39.99737 4.12186 10004 ft 297 kts 243°
2026-04-15 13:04 39.98562 4.09974 10830 ft 304 kts 232°
2026-04-15 13:04 39.97095 4.07946 11628 ft 309 kts 225°
2026-04-15 13:04 39.95398 4.06074 12020 ft 332 kts 218°
2026-04-15 13:04 39.93384 4.04398 12276 ft 356 kts 208°
2026-04-15 13:05 39.91059 4.03106 12803 ft 368 kts 198°
2026-04-15 13:05 39.88548 4.02329 13488 ft 374 kts 188°
2026-04-15 13:05 39.85942 4.02122 14173 ft 378 kts 177°
2026-04-15 13:05 39.83313 4.02525 14773 ft 382 kts 166°
2026-04-15 13:06 39.80758 4.03539 15391 ft 385 kts 156°
2026-04-15 13:06 39.78192 4.04627 15991 ft 392 kts 167°
2026-04-15 13:06 39.75450 4.04827 16582 ft 399 kts 185°
2026-04-15 13:06 39.72749 4.03935 17170 ft 404 kts 205°
2026-04-15 13:07 39.70379 4.01993 17739 ft 405 kts 224°
2026-04-15 13:07 39.68517 3.99316 18323 ft 406 kts 234°
2026-04-15 13:07 39.66725 3.96446 18859 ft 411 kts 234°
2026-04-15 13:07 39.64926 3.93546 19366 ft 415 kts 234°
2026-04-15 13:08 39.63095 3.90601 19880 ft 420 kts 234°
2026-04-15 13:08 39.61244 3.87638 20393 ft 425 kts 235°
2026-04-15 13:08 39.59372 3.84651 20908 ft 429 kts 235°
2026-04-15 13:08 39.57481 3.81637 21135 ft 432 kts 235°
2026-04-15 13:09 39.55568 3.78598 21187 ft 437 kts 235°
2026-04-15 13:09 39.53636 3.75530 21201 ft 439 kts 235°
2026-04-15 13:09 39.53014 3.74545 21197 ft 439 kts 235°
2026-04-15 13:09 39.52413 3.73594 21201 ft 440 kts 233°
2026-04-15 13:10 39.50428 3.70571 21197 ft 440 kts 234°
2026-04-15 13:10 39.48478 3.67521 21196 ft 439 kts 235°
2026-04-15 13:10 39.46553 3.64450 21197 ft 439 kts 235°
2026-04-15 13:10 39.44638 3.61375 21195 ft 439 kts 235°
2026-04-15 13:11 39.42720 3.58296 21193 ft 439 kts 235°
2026-04-15 13:11 39.40820 3.55264 21188 ft 439 kts 235°
2026-04-15 13:11 39.38886 3.52196 21186 ft 439 kts 235°
2026-04-15 13:11 39.37026 3.49077 21169 ft 436 kts 242°
2026-04-15 13:12 39.35609 3.45659 21183 ft 428 kts 253°
2026-04-15 13:12 39.34720 3.42026 21181 ft 420 kts 264°
2026-04-15 13:12 39.34363 3.38319 21175 ft 412 kts 275°
2026-04-15 13:12 39.34513 3.34672 21173 ft 404 kts 285°
2026-04-15 13:13 39.35044 3.31128 21175 ft 401 kts 288°
2026-04-15 13:13 39.35601 3.27595 21177 ft 401 kts 288°
2026-04-15 13:13 39.36150 3.24065 21170 ft 401 kts 287°
2026-04-15 13:13 39.36695 3.20528 21173 ft 401 kts 287°
2026-04-15 13:14 39.37237 3.16999 21171 ft 401 kts 287°
2026-04-15 13:14 39.37781 3.13470 21171 ft 400 kts 287°
2026-04-15 13:14 39.38330 3.09941 21172 ft 400 kts 287°
2026-04-15 13:14 39.38876 3.06418 21173 ft 400 kts 287°
2026-04-15 13:15 39.39402 3.03009 21173 ft 400 kts 287°
2026-04-15 13:15 39.39942 2.99479 21175 ft 400 kts 287°
2026-04-15 13:15 39.40471 2.96003 21177 ft 400 kts 287°
2026-04-15 13:15 39.41006 2.92474 21178 ft 400 kts 287°
2026-04-15 13:16 39.41542 2.88948 21182 ft 400 kts 287°
2026-04-15 13:16 39.42074 2.85422 21183 ft 400 kts 287°
2026-04-15 13:16 39.42608 2.81887 21184 ft 400 kts 287°
2026-04-15 13:16 39.43123 2.78488 21187 ft 400 kts 287°
2026-04-15 13:17 39.43802 2.75022 21187 ft 394 kts 295°
2026-04-15 13:17 39.44816 2.71749 21186 ft 392 kts 297°
2026-04-15 13:17 39.45854 2.68489 21187 ft 392 kts 297°
2026-04-15 13:17 39.46887 2.65229 21186 ft 392 kts 297°
2026-04-15 13:18 39.47920 2.61960 21186 ft 392 kts 297°
2026-04-15 13:18 39.48950 2.58698 21186 ft 391 kts 297°
2026-04-15 13:18 39.49978 2.55436 21186 ft 391 kts 297°
2026-04-15 13:18 39.51005 2.52170 21186 ft 391 kts 297°
2026-04-15 13:19 39.52027 2.48909 21183 ft 391 kts 297°
2026-04-15 13:19 39.53052 2.45636 21181 ft 391 kts 297°
2026-04-15 13:19 39.54074 2.42375 21181 ft 391 kts 296°
2026-04-15 13:19 39.54869 2.38979 21179 ft 397 kts 286°
2026-04-15 13:20 39.55202 2.35406 21175 ft 401 kts 279°
2026-04-15 13:20 39.55400 2.31798 21174 ft 401 kts 279°
2026-04-15 13:20 39.55596 2.28185 21174 ft 401 kts 279°
2026-04-15 13:20 39.55794 2.24580 21178 ft 401 kts 279°
2026-04-15 13:21 39.55992 2.20980 21180 ft 401 kts 279°
2026-04-15 13:21 39.56192 2.17369 21181 ft 401 kts 279°
2026-04-15 13:21 39.56394 2.13763 21181 ft 401 kts 279°
2026-04-15 13:21 39.56594 2.10161 21181 ft 401 kts 279°
2026-04-15 13:22 39.56791 2.06554 21184 ft 401 kts 279°
2026-04-15 13:22 39.56987 2.02952 21186 ft 401 kts 279°
2026-04-15 13:22 39.57181 1.99345 21182 ft 401 kts 279°
2026-04-15 13:22 39.57374 1.95742 21185 ft 401 kts 279°
2026-04-15 13:23 39.57566 1.92134 21185 ft 401 kts 278°
2026-04-15 13:23 39.57756 1.88528 21185 ft 401 kts 278°
2026-04-15 13:23 39.57938 1.85072 21185 ft 401 kts 278°
2026-04-15 13:23 39.58127 1.81465 21185 ft 401 kts 278°
2026-04-15 13:24 39.58314 1.77907 21188 ft 401 kts 278°
2026-04-15 13:24 39.58502 1.74297 21188 ft 401 kts 278°
2026-04-15 13:24 39.58690 1.70689 21188 ft 401 kts 278°
2026-04-15 13:24 39.58875 1.67086 21188 ft 401 kts 278°
2026-04-15 13:25 39.59059 1.63487 21189 ft 401 kts 278°
2026-04-15 13:25 39.59243 1.59877 21190 ft 401 kts 278°
2026-04-15 13:25 39.59425 1.56272 21189 ft 401 kts 278°
2026-04-15 13:25 39.59606 1.52668 21189 ft 401 kts 278°
2026-04-15 13:26 39.59783 1.49062 21188 ft 401 kts 278°
2026-04-15 13:26 39.59959 1.45453 21190 ft 401 kts 278°
2026-04-15 13:26 39.60132 1.41849 21195 ft 401 kts 278°
2026-04-15 13:26 39.60281 1.38234 21196 ft 403 kts 275°
2026-04-15 13:27 39.60136 1.34594 21198 ft 405 kts 270°
2026-04-15 13:27 39.59935 1.30948 21199 ft 405 kts 270°
2026-04-15 13:27 39.59731 1.27315 21198 ft 405 kts 270°
2026-04-15 13:27 39.59523 1.23673 21198 ft 404 kts 270°
2026-04-15 13:28 39.59315 1.20040 21196 ft 404 kts 270°
2026-04-15 13:28 39.59269 1.16414 21195 ft 399 kts 278°
2026-04-15 13:28 39.59491 1.12828 21196 ft 399 kts 278°
2026-04-15 13:28 39.59709 1.09285 21195 ft 399 kts 278°
2026-04-15 13:29 39.59927 1.05699 21198 ft 399 kts 278°
2026-04-15 13:29 39.60146 1.02114 21193 ft 399 kts 278°
2026-04-15 13:29 39.60366 0.98524 21194 ft 399 kts 278°
2026-04-15 13:29 39.60585 0.94937 21197 ft 399 kts 278°
2026-04-15 13:30 39.60732 0.92511 21197 ft 399 kts 278°
2026-04-15 13:30 39.60946 0.88973 21198 ft 399 kts 278°
2026-04-15 13:30 39.61162 0.85389 21192 ft 399 kts 278°
2026-04-15 13:30 39.61377 0.81808 21192 ft 398 kts 278°
2026-04-15 13:31 39.61591 0.78224 21200 ft 398 kts 278°
2026-04-15 13:31 39.61802 0.74640 21195 ft 398 kts 278°
2026-04-15 13:31 39.62010 0.71063 21191 ft 398 kts 278°
2026-04-15 13:31 39.62221 0.67485 21197 ft 398 kts 278°
2026-04-15 13:32 39.62432 0.63908 21190 ft 398 kts 278°
2026-04-15 13:32 39.62641 0.60330 21192 ft 397 kts 278°
2026-04-15 13:32 39.62846 0.56758 21192 ft 397 kts 278°
2026-04-15 13:32 39.63051 0.53184 21186 ft 397 kts 278°
2026-04-15 13:33 39.63254 0.49612 21186 ft 397 kts 277°
2026-04-15 13:33 39.63454 0.46040 21179 ft 397 kts 277°
2026-04-15 13:33 39.63650 0.42467 21182 ft 396 kts 277°
2026-04-15 13:33 39.63849 0.38900 21179 ft 396 kts 277°
2026-04-15 13:34 39.64050 0.35341 21180 ft 396 kts 277°
2026-04-15 13:34 39.64251 0.31774 21182 ft 396 kts 277°
2026-04-15 13:34 39.64449 0.28212 21174 ft 396 kts 277°
2026-04-15 13:34 39.64645 0.24651 21174 ft 396 kts 277°
2026-04-15 13:35 39.64840 0.21082 21174 ft 396 kts 277°
2026-04-15 13:35 39.65035 0.17518 21176 ft 396 kts 277°
2026-04-15 13:35 39.65225 0.13955 21176 ft 396 kts 277°
2026-04-15 13:35 39.65414 0.10392 21176 ft 396 kts 277°
2026-04-15 13:36 39.65604 0.06824 21179 ft 396 kts 277°
2026-04-15 13:36 39.65791 0.03286 21009 ft 388 kts 277°
2026-04-15 13:36 39.65970 -0.00157 20761 ft 378 kts 277°
2026-04-15 13:36 39.66148 -0.03546 20513 ft 374 kts 277°
2026-04-15 13:37 39.66325 -0.06897 20269 ft 372 kts 277°
2026-04-15 13:37 39.66500 -0.10239 20025 ft 371 kts 277°
2026-04-15 13:37 39.66673 -0.13577 19782 ft 370 kts 277°
2026-04-15 13:37 39.66832 -0.16714 19559 ft 369 kts 277°
2026-04-15 13:38 39.66996 -0.20003 19322 ft 368 kts 277°
2026-04-15 13:38 39.67161 -0.23312 19089 ft 367 kts 277°
2026-04-15 13:38 39.67327 -0.26603 18825 ft 363 kts 277°
2026-04-15 13:38 39.67491 -0.29865 18368 ft 362 kts 277°
2026-04-15 13:39 39.67653 -0.33117 17848 ft 360 kts 277°
2026-04-15 13:39 39.67815 -0.36354 17368 ft 358 kts 277°
2026-04-15 13:39 39.67974 -0.39575 16895 ft 356 kts 277°
2026-04-15 13:39 39.68128 -0.42769 16424 ft 353 kts 276°
2026-04-15 13:40 39.68280 -0.45948 15959 ft 351 kts 276°
2026-04-15 13:40 39.68432 -0.49116 15493 ft 351 kts 276°
2026-04-15 13:40 39.68584 -0.52275 15026 ft 350 kts 276°
2026-04-15 13:40 39.68737 -0.55421 14564 ft 349 kts 276°
2026-04-15 13:41 39.68889 -0.58568 14086 ft 349 kts 277°
2026-04-15 13:41 39.69040 -0.61709 13583 ft 348 kts 276°
2026-04-15 13:41 39.69188 -0.64840 13098 ft 346 kts 276°
2026-04-15 13:41 39.69332 -0.67947 12621 ft 344 kts 276°
2026-04-15 13:42 39.69473 -0.71037 12132 ft 341 kts 276°
2026-04-15 13:42 39.69613 -0.74099 11650 ft 339 kts 276°
2026-04-15 13:42 39.69751 -0.77149 11161 ft 338 kts 276°
2026-04-15 13:42 39.69890 -0.80186 10672 ft 335 kts 275°
2026-04-15 13:43 39.70026 -0.83162 10482 ft 323 kts 275°
2026-04-15 13:43 39.70152 -0.85980 10353 ft 300 kts 275°
2026-04-15 13:43 39.70266 -0.88587 10238 ft 278 kts 275°
2026-04-15 13:43 39.70372 -0.91053 10144 ft 268 kts 276°
2026-04-15 13:44 39.70478 -0.93451 9822 ft 267 kts 276°
2026-04-15 13:44 39.70587 -0.95859 9435 ft 267 kts 276°
2026-04-15 13:44 39.70690 -0.98263 9078 ft 266 kts 272°
2026-04-15 13:44 39.70275 -1.00583 8772 ft 269 kts 240°
2026-04-15 13:45 39.68908 -1.02193 8493 ft 270 kts 204°
2026-04-15 13:45 39.67103 -1.02491 8265 ft 266 kts 168°
2026-04-15 13:45 39.65512 -1.01370 8069 ft 258 kts 128°
2026-04-15 13:47 39.64035 -0.85882 6324 ft 248 kts 101°
2026-04-15 13:47 39.63613 -0.83719 6007 ft 246 kts 103°
2026-04-15 13:47 39.63165 -0.81590 5740 ft 243 kts 103°
2026-04-15 13:48 39.62729 -0.79508 5487 ft 235 kts 103°
2026-04-15 13:48 39.62143 -0.77548 5207 ft 236 kts 125°
2026-04-15 13:48 39.60868 -0.76146 4726 ft 246 kts 146°
2026-04-15 13:48 39.59479 -0.74899 4388 ft 238 kts 137°
2026-04-15 13:49 39.58468 -0.73269 4099 ft 229 kts 118°
2026-04-15 13:49 39.57746 -0.71464 3815 ft 223 kts 115°
2026-04-15 13:49 39.57080 -0.69674 3531 ft 218 kts 115°
2026-04-15 13:49 39.56424 -0.67926 3259 ft 214 kts 117°
2026-04-15 13:50 39.55779 -0.66217 3002 ft 207 kts 115°
2026-04-15 13:50 39.55158 -0.64574 2706 ft 199 kts 116°
2026-04-15 13:50 39.54558 -0.62989 2440 ft 191 kts 116°
2026-04-15 13:50 39.54000 -0.61516 2226 ft 172 kts 117°
2026-04-15 13:51 39.53510 -0.60211 1993 ft 154 kts 116°
2026-04-15 13:51 39.53056 -0.58989 1834 ft 148 kts 115°
2026-04-15 13:51 39.52614 -0.57818 1515 ft 140 kts 118°
2026-04-15 13:51 39.52192 -0.56717 1422 ft 135 kts 117°
2026-04-15 13:52 39.51778 -0.55643 1123 ft 132 kts 118°
2026-04-15 13:52 39.51373 -0.54579 1042 ft 131 kts 118°
2026-04-15 13:52 39.50970 -0.53524 878 ft 130 kts 118°
2026-04-15 13:52 39.50573 -0.52465 684 ft 129 kts 118°
2026-04-15 13:53 39.50175 -0.51429 508 ft 129 kts 116°
2026-04-15 13:53 39.49783 -0.50391 312 ft 127 kts 117°
2026-04-15 13:53 39.49395 -0.49379 209 ft 118 kts 116°
2026-04-15 13:53 39.49113 -0.48637 213 ft 66 kts 116°
2026-04-15 13:54 39.48989 -0.48310 212 ft 26 kts 109°
2026-04-15 13:54 39.48985 -0.48098 210 ft 23 kts 79°
2026-04-15 13:54 39.49022 -0.47898 217 ft 23 kts 76°
2026-04-15 13:54 39.49048 -0.47735 209 ft 14 kts 77°
2026-04-15 13:55 39.49049 -0.47608 214 ft 15 kts 110°
2026-04-15 13:55 39.48999 -0.47477 216 ft 17 kts 116°
2026-04-15 13:55 39.48968 -0.47380 212 ft 7 kts 77°
2026-04-15 13:55 39.49009 -0.47350 214 ft 7 kts 24°
2026-04-15 13:56 39.49033 -0.47336 210 ft 0 kts 24°